Time;durP1;ratioP1;P1;durP2;ratioP2;P2;SDS_P1;SDS_P2;PMS_P1;PMS_P2;Temp;Humidity;BMP_temperature;BMP_pressure;BME280_temperature;BME280_humidity;BME280_pressure;Samples;Min_cycle;Max_cycle;Signal;HPM_P1;HPM_P2
2023/08/23 00:00:26;;;;;;;8.85;3.42;;;;;;;21.41;100.00;96248.72;4955071;28;24452;-77
2023/08/23 00:02:54;;;;;;;3.67;3.10;;;;;;;21.38;100.00;96242.94;4966490;28;24946;-78
2023/08/23 00:05:21;;;;;;;4.20;3.03;;;;;;;21.44;100.00;96232.63;4959023;28;24461;-78
2023/08/23 00:07:47;;;;;;;4.40;2.85;;;;;;;21.46;100.00;96230.66;4967371;28;24524;-78
2023/08/23 00:10:14;;;;;;;6.68;3.05;;;;;;;21.35;100.00;96227.41;4972473;28;24525;-78
2023/08/23 00:12:41;;;;;;;6.07;3.03;;;;;;;21.24;100.00;96223.19;4954483;28;24417;-77
2023/08/23 00:15:08;;;;;;;6.28;3.10;;;;;;;21.02;100.00;96221.81;4953443;28;24448;-77
2023/08/23 00:17:35;;;;;;;4.60;3.05;;;;;;;20.94;100.00;96217.31;4983841;28;24444;-77
2023/08/23 00:20:04;;;;;;;4.63;3.17;;;;;;;20.92;100.00;96214.00;4992056;28;24441;-77
2023/08/23 00:22:30;;;;;;;5.05;3.60;;;;;;;20.88;100.00;96211.84;4973099;28;24441;-77
2023/08/23 00:24:57;;;;;;;4.35;3.10;;;;;;;21.07;100.00;96208.22;4972879;28;24456;-77
2023/08/23 00:27:23;;;;;;;5.97;3.20;;;;;;;21.15;100.00;96198.59;4962875;28;24465;-77
2023/08/23 00:29:50;;;;;;;4.43;2.63;;;;;;;21.18;100.00;96205.38;4966345;28;24805;-77
2023/08/23 00:32:16;;;;;;;10.18;2.88;;;;;;;21.11;100.00;96197.22;4971840;28;24460;-77
2023/08/23 00:34:43;;;;;;;6.10;3.20;;;;;;;20.88;100.00;96198.66;4972416;28;24440;-77
2023/08/23 00:37:11;;;;;;;4.05;3.00;;;;;;;20.64;100.00;96202.69;4964591;28;25012;-77
2023/08/23 00:39:37;;;;;;;5.22;2.80;;;;;;;20.71;100.00;96209.00;4958053;28;24425;-77
2023/08/23 00:42:04;;;;;;;7.30;3.33;;;;;;;20.54;100.00;96205.38;4980403;28;24448;-77
2023/08/23 00:44:30;;;;;;;5.30;3.00;;;;;;;20.43;100.00;96199.44;4972459;28;24440;-77
2023/08/23 00:46:57;;;;;;;4.10;3.00;;;;;;;20.44;100.00;96206.38;4952804;29;25024;-77
2023/08/23 00:49:24;;;;;;;6.82;3.08;;;;;;;20.50;100.00;96205.81;4953215;28;24442;-77
2023/08/23 00:51:51;;;;;;;4.60;3.10;;;;;;;20.43;100.00;96200.28;4953064;28;24418;-77
2023/08/23 00:54:19;;;;;;;4.13;3.17;;;;;;;20.46;100.00;96207.88;4953102;28;24981;-77
2023/08/23 00:56:46;;;;;;;17.33;3.47;;;;;;;20.50;100.00;96206.63;4972671;28;24414;-77
2023/08/23 00:59:12;;;;;;;7.65;3.05;;;;;;;20.44;100.00;96212.47;4972226;28;24484;-77
2023/08/23 01:01:39;;;;;;;5.15;3.22;;;;;;;20.34;100.00;96205.59;4972385;28;24417;-77
2023/08/23 01:04:05;;;;;;;4.82;3.15;;;;;;;20.41;100.00;96206.66;4972062;28;24429;-77
2023/08/23 01:06:47;;;;;;;3.37;3.07;;;;;;;20.46;100.00;96210.50;4955482;28;25100;-77
2023/08/23 01:09:25;;;;;;;4.00;3.17;;;;;;;20.49;100.00;96220.75;4964739;28;24525;-77
2023/08/23 01:12:00;;;;;;;4.20;3.20;;;;;;;20.48;100.00;96219.09;4958800;28;24529;-77
2023/08/23 01:14:37;;;;;;;3.85;2.58;;;;;;;20.40;100.00;96221.63;4971594;28;24433;-77
2023/08/23 01:17:04;;;;;;;4.60;3.40;;;;;;;20.45;100.00;96215.91;4971271;28;24422;-77
2023/08/23 01:19:42;;;;;;;5.22;3.25;;;;;;;20.56;100.00;96215.75;4971734;28;24993;-77
2023/08/23 01:22:11;;;;;;;4.35;3.08;;;;;;;20.60;100.00;96211.84;4972284;28;24417;-77
2023/08/23 01:24:39;;;;;;;6.88;3.20;;;;;;;20.54;100.00;96213.28;4953579;28;24457;-77
2023/08/23 01:27:06;;;;;;;3.88;2.83;;;;;;;20.55;100.00;96214.09;4958154;28;24464;-77
2023/08/23 01:29:32;;;;;;;6.65;3.40;;;;;;;20.27;100.00;96211.41;4963108;28;24442;-77
2023/08/23 01:32:07;;;;;;;3.65;3.00;;;;;;;20.12;100.00;96218.13;4965642;28;24441;-77
2023/08/23 01:34:38;;;;;;;4.03;3.27;;;;;;;19.95;100.00;96211.84;4970926;28;24429;-77
2023/08/23 01:37:06;;;;;;;8.13;3.07;;;;;;;19.89;100.00;96217.66;4972349;28;24469;-77
2023/08/23 01:39:35;;;;;;;5.43;3.05;;;;;;;19.95;100.00;96217.09;4971657;28;24778;-77
2023/08/23 01:42:03;;;;;;;3.22;2.80;;;;;;;20.01;100.00;96218.31;4959246;28;24434;-77
2023/08/23 01:44:30;;;;;;;4.82;2.95;;;;;;;19.91;100.00;96215.72;4953436;28;24422;-77
2023/08/23 01:46:57;;;;;;;6.90;3.10;;;;;;;19.92;100.00;96206.88;4953409;28;24504;-77
2023/08/23 01:49:23;;;;;;;5.43;2.95;;;;;;;19.77;100.00;96206.50;5010518;23;24999;-79
2023/08/23 01:51:50;;;;;;;4.13;3.10;;;;;;;19.77;100.00;96198.59;4988863;28;24456;-79
2023/08/23 01:54:16;;;;;;;4.78;3.22;;;;;;;19.80;100.00;96211.47;4989368;28;24456;-80
2023/08/23 01:56:43;;;;;;;4.88;3.03;;;;;;;19.86;100.00;96204.81;4988232;28;25008;-80
2023/08/23 01:59:10;;;;;;;8.23;2.83;;;;;;;19.91;100.00;96207.84;4991418;28;24529;-80
2023/08/23 02:01:37;;;;;;;3.72;2.80;;;;;;;19.94;100.00;96211.97;4982984;28;24900;-80
2023/08/23 02:04:04;;;;;;;4.70;2.70;;;;;;;19.88;100.00;96218.66;4976331;28;24460;-79
2023/08/23 02:06:30;;;;;;;4.80;2.85;;;;;;;19.85;100.00;96221.56;4978112;28;24992;-80
2023/08/23 02:08:57;;;;;;;4.55;3.30;;;;;;;19.83;100.00;96216.41;4972477;28;25103;-80
2023/08/23 02:11:23;;;;;;;5.47;3.10;;;;;;;19.81;100.00;96214.91;4982074;28;24437;-81
2023/08/23 02:13:50;;;;;;;4.45;3.20;;;;;;;19.86;100.00;96210.06;4974599;28;24793;-80
2023/08/23 02:16:17;;;;;;;5.43;3.40;;;;;;;19.86;100.00;96210.06;4974578;28;24429;-80
2023/08/23 02:18:44;;;;;;;5.57;3.25;;;;;;;19.95;100.00;96217.09;4995336;28;24437;-80
2023/08/23 02:21:10;;;;;;;5.72;3.40;;;;;;;19.85;100.00;96216.28;4995520;28;25006;-79
2023/08/23 02:23:37;;;;;;;4.93;3.28;;;;;;;19.75;100.00;96208.41;4983976;28;24442;-79
2023/08/23 02:26:03;;;;;;;4.15;3.10;;;;;;;19.72;100.00;96202.63;4977629;28;24448;-79
2023/08/23 02:28:30;;;;;;;3.80;3.13;;;;;;;19.68;100.00;96199.44;4990702;28;24456;-79
2023/08/23 02:31:02;;;;;;;4.35;2.90;;;;;;;19.74;100.00;96191.00;4989107;28;24449;-79
2023/08/23 02:33:30;;;;;;;4.97;3.13;;;;;;;19.74;100.00;96190.19;4985837;28;24438;-79
2023/08/23 02:35:57;;;;;;;4.45;3.25;;;;;;;19.79;100.00;96195.81;4982783;28;24444;-79
2023/08/23 02:38:23;;;;;;;4.60;3.00;;;;;;;19.72;100.00;96195.56;5003045;28;24433;-79
2023/08/23 02:40:50;;;;;;;4.75;3.17;;;;;;;19.51;100.00;96193.09;4997328;28;25009;-80
2023/08/23 02:43:16;;;;;;;4.85;2.85;;;;;;;19.46;100.00;96190.06;4993354;28;24440;-80
2023/08/23 02:45:43;;;;;;;6.37;3.10;;;;;;;19.48;100.00;96193.38;5003996;28;24439;-80
2023/08/23 02:48:10;;;;;;;4.40;3.10;;;;;;;19.52;100.00;96189.50;4980360;28;24458;-80
2023/08/23 02:50:39;;;;;;;5.97;2.70;;;;;;;19.54;100.00;96184.09;4992941;28;25006;-77
2023/08/23 02:53:05;;;;;;;6.95;3.03;;;;;;;19.51;100.00;96193.09;4982467;28;24988;-77
2023/08/23 02:55:35;;;;;;;4.22;2.85;;;;;;;19.59;100.00;96201.09;4997304;28;24439;-80
2023/08/23 02:58:01;;;;;;;3.47;3.10;;;;;;;19.75;100.00;96197.91;4978148;28;24465;-81
2023/08/23 03:00:28;;;;;;;4.05;2.90;;;;;;;19.72;100.00;96195.56;4978556;28;24434;-81
2023/08/23 03:02:54;;;;;;;5.65;3.05;;;;;;;19.71;100.00;96203.59;4991847;28;24440;-81
2023/08/23 03:05:21;;;;;;;5.68;3.22;;;;;;;19.73;100.00;96199.88;4982230;28;24440;-81
2023/08/23 03:07:49;;;;;;;5.15;3.20;;;;;;;19.73;100.00;96194.63;4993048;28;24449;-81
2023/08/23 03:10:15;;;;;;;3.45;2.92;;;;;;;19.73;100.00;96199.03;4993159;28;24444;-81
2023/08/23 03:12:42;;;;;;;5.32;3.40;;;;;;;19.74;100.00;96191.00;4978913;28;24433;-81
2023/08/23 03:15:09;;;;;;;5.82;3.45;;;;;;;19.71;100.00;96193.91;4995434;28;24433;-81
2023/08/23 03:17:36;;;;;;;5.43;3.70;;;;;;;19.71;100.00;96199.16;4985901;28;24429;-80
2023/08/23 03:20:03;;;;;;;5.53;3.58;;;;;;;19.66;100.00;96197.94;4976549;28;24446;-80
2023/08/23 03:22:30;;;;;;;8.95;3.97;;;;;;;19.59;100.00;96202.91;4975947;28;24500;-80
2023/08/23 03:24:58;;;;;;;8.80;3.93;;;;;;;19.43;100.00;96200.00;4985393;28;24793;-80
2023/08/23 03:27:25;;;;;;;9.57;3.73;;;;;;;19.36;100.00;96197.13;4983210;28;24441;-81
2023/08/23 03:29:52;;;;;;;4.10;3.10;;;;;;;19.44;100.00;96204.31;4990712;28;24475;-80
2023/08/23 03:32:20;;;;;;;4.25;3.20;;;;;;;19.53;100.00;96201.66;4979637;28;24447;-81
2023/08/23 03:34:46;;;;;;;8.23;3.15;;;;;;;19.48;100.00;96192.56;4995436;28;24456;-80
2023/08/23 03:37:13;;;;;;;4.13;3.20;;;;;;;19.31;100.00;96178.31;4985871;28;24448;-81
2023/08/23 03:39:39;;;;;;;5.93;3.17;;;;;;;19.07;100.00;96182.22;4976467;28;24508;-80
2023/08/23 03:42:07;;;;;;;6.78;3.28;;;;;;;18.86;100.00;96182.34;4978213;28;24518;-80
2023/08/23 03:44:34;;;;;;;6.72;3.33;;;;;;;19.15;100.00;96178.06;4996052;28;24491;-80
2023/08/23 03:47:00;;;;;;;6.70;3.60;;;;;;;18.99;100.00;96174.22;4988270;28;25083;-80
2023/08/23 03:49:27;;;;;;;3.83;3.42;;;;;;;18.86;100.00;96181.53;4988970;28;24472;-80
2023/08/23 03:51:53;;;;;;;6.18;3.40;;;;;;;18.73;100.00;96176.56;4996828;28;24800;-81
2023/08/23 03:54:21;;;;;;;8.02;3.13;;;;;;;18.73;100.00;96180.97;4995790;28;24959;-81
2023/08/23 03:56:47;;;;;;;4.93;3.25;;;;;;;18.76;100.00;96175.44;4989893;28;24433;-81
2023/08/23 03:59:15;;;;;;;5.68;3.13;;;;;;;18.84;100.00;96180.84;4977153;28;24644;-81
2023/08/23 04:01:43;;;;;;;6.07;3.92;;;;;;;18.96;100.00;96181.53;4985171;28;24449;-81
2023/08/23 04:04:09;;;;;;;5.15;3.80;;;;;;;19.19;100.00;96171.56;4986422;28;24479;-81
2023/08/23 04:06:36;;;;;;;5.45;3.58;;;;;;;19.05;100.00;96180.69;5001363;28;24960;-82
2023/08/23 04:09:03;;;;;;;6.55;3.80;;;;;;;18.88;100.00;96184.03;4992850;28;24465;-81
2023/08/23 04:11:29;;;;;;;5.40;3.53;;;;;;;18.84;100.00;96179.06;4993020;28;24440;-81
2023/08/23 04:13:56;;;;;;;8.02;4.10;;;;;;;18.87;100.00;96177.91;4989137;28;24528;-81
2023/08/23 04:16:23;;;;;;;5.60;3.70;;;;;;;18.82;100.00;96180.13;4975757;28;24446;-81
2023/08/23 04:18:50;;;;;;;9.35;3.90;;;;;;;18.80;100.00;96189.94;4982261;28;24453;-80
2023/08/23 04:21:16;;;;;;;6.32;3.35;;;;;;;18.82;100.00;96177.50;4995796;28;24428;-79
2023/08/23 04:23:43;;;;;;;7.45;3.83;;;;;;;18.89;100.00;96183.88;4995712;28;24456;-79
2023/08/23 04:26:09;;;;;;;6.38;3.92;;;;;;;18.81;100.00;96191.63;4979074;28;24446;-79
2023/08/23 04:28:37;;;;;;;6.00;3.45;;;;;;;18.84;100.00;96194.78;4975696;28;24457;-78
2023/08/23 04:31:04;;;;;;;5.07;3.72;;;;;;;18.94;100.00;96186.91;4973773;28;24525;-82
2023/08/23 04:33:34;;;;;;;5.27;3.70;;;;;;;19.19;100.00;96192.59;4992110;28;24436;-80
2023/08/23 04:36:01;;;;;;;5.05;3.70;;;;;;;19.18;100.00;96193.56;4993759;28;24545;-75
2023/08/23 04:38:28;;;;;;;4.78;3.67;;;;;;;19.13;100.00;96193.13;4990149;28;25023;-74
2023/08/23 04:41:00;;;;;;;5.03;3.50;;;;;;;18.94;100.00;96191.31;4983307;28;24442;-74
2023/08/23 04:43:26;;;;;;;3.85;3.05;;;;;;;18.90;100.00;96185.53;4973683;28;25023;-76
2023/08/23 04:45:54;;;;;;;4.55;3.33;;;;;;;18.92;100.00;96193.28;4972871;28;24471;-76
2023/08/23 04:48:20;;;;;;;5.37;3.60;;;;;;;18.91;100.00;96186.34;4990368;28;24545;-77
2023/08/23 04:50:52;;;;;;;5.30;3.97;;;;;;;18.98;100.00;96190.91;4992841;28;24413;-77
2023/08/23 04:53:18;;;;;;;4.90;3.33;;;;;;;19.14;100.00;96197.44;4992178;28;24444;-77
2023/08/23 04:55:45;;;;;;;4.60;3.33;;;;;;;19.07;100.00;96191.91;4989993;28;24449;-77
2023/08/23 04:58:11;;;;;;;4.53;2.90;;;;;;;18.96;100.00;96190.25;4973791;28;24409;-77
2023/08/23 05:00:38;;;;;;;4.97;3.05;;;;;;;18.96;100.00;96194.66;4992685;28;24444;-76
2023/08/23 05:03:05;;;;;;;5.55;3.22;;;;;;;19.03;100.00;96198.41;4985645;28;24445;-77
2023/08/23 05:05:31;;;;;;;4.13;3.25;;;;;;;18.95;100.00;96200.84;4974244;28;24500;-77
2023/08/23 05:07:59;;;;;;;7.80;3.53;;;;;;;18.91;100.00;96195.09;4972517;28;25108;-77
2023/08/23 05:10:26;;;;;;;4.53;3.88;;;;;;;18.80;100.00;96196.03;4972107;28;24426;-77
2023/08/23 05:12:55;;;;;;;5.90;3.70;;;;;;;18.81;100.00;96195.06;4972553;28;24453;-77
2023/08/23 05:15:22;;;;;;;6.40;3.55;;;;;;;18.96;100.00;96203.34;4974052;28;24894;-77
2023/08/23 05:17:48;;;;;;;5.47;3.80;;;;;;;19.16;100.00;96205.97;4973235;28;24445;-77
2023/08/23 05:20:15;;;;;;;5.63;3.67;;;;;;;19.34;100.00;96199.06;4972856;28;24433;-77
2023/08/23 05:22:42;;;;;;;4.45;3.53;;;;;;;19.47;100.00;96204.03;4973321;28;24488;-75
2023/08/23 05:25:10;;;;;;;8.65;3.30;;;;;;;19.59;100.00;96198.47;4978614;28;24812;-79
2023/08/23 05:27:36;;;;;;;6.67;3.73;;;;;;;19.79;100.00;96195.81;4994952;28;24521;-79
2023/08/23 05:30:03;;;;;;;5.15;3.67;;;;;;;19.95;100.00;96197.84;4976682;28;24530;-80
2023/08/23 05:32:30;;;;;;;7.23;3.80;;;;;;;20.03;100.00;96193.53;4974442;28;24484;-79
2023/08/23 05:34:57;;;;;;;5.40;3.88;;;;;;;20.09;100.00;96202.63;4980723;28;24452;-79
2023/08/23 05:37:23;;;;;;;6.25;3.70;;;;;;;20.12;100.00;96194.47;4992571;28;24437;-79
2023/08/23 05:39:50;;;;;;;5.70;3.60;;;;;;;20.24;100.00;96203.81;4992004;28;24432;-79
2023/08/23 05:42:18;;;;;;;6.97;4.07;;;;;;;20.38;100.00;96194.63;4989749;28;24425;-80
2023/08/23 05:44:44;;;;;;;7.00;4.10;;;;;;;20.51;100.00;96196.97;4977970;28;24442;-79
2023/08/23 05:47:11;;;;;;;7.53;3.60;;;;;;;20.54;100.00;96197.50;4987809;28;24441;-78
2023/08/23 05:49:37;;;;;;;6.80;4.07;;;;;;;20.54;100.00;96199.28;4990207;28;24468;-80
2023/08/23 05:52:04;;;;;;;6.38;3.67;;;;;;;20.50;100.00;96201.38;4980220;28;24443;-76
2023/08/23 05:54:32;;;;;;;9.48;3.60;;;;;;;20.44;100.00;96209.84;4975564;28;24438;-76
2023/08/23 05:56:59;;;;;;;5.40;3.70;;;;;;;20.22;100.00;96216.31;4975577;28;24500;-76
2023/08/23 05:59:28;;;;;;;5.30;4.00;;;;;;;20.28;100.00;96212.25;4986478;28;24525;-76
2023/08/23 06:01:54;;;;;;;5.20;3.50;;;;;;;20.37;100.00;96211.38;4982561;28;24442;-79
2023/08/23 06:04:21;;;;;;;6.10;3.80;;;;;;;20.65;100.00;96216.66;4985479;28;24437;-75
2023/08/23 06:06:48;;;;;;;4.82;3.90;;;;;;;20.85;100.00;96210.31;4987902;28;24437;-74
2023/08/23 06:09:15;;;;;;;11.60;4.35;;;;;;;20.94;100.00;96214.66;4983332;28;24868;-74
2023/08/23 06:11:41;;;;;;;6.95;4.28;;;;;;;21.12;100.00;96214.69;4993260;28;24444;-74
2023/08/23 06:14:18;;;;;;;6.18;4.20;;;;;;;21.30;100.00;96219.94;4990529;28;24443;-80
2023/08/23 06:16:46;;;;;;;5.82;4.25;;;;;;;21.36;100.00;96226.44;4980301;28;24402;-79
2023/08/23 06:19:13;;;;;;;6.63;4.07;;;;;;;21.32;100.00;96219.78;4985340;28;24447;-79
2023/08/23 06:21:40;;;;;;;5.03;4.00;;;;;;;21.07;100.00;96221.41;4999119;28;24440;-79
2023/08/23 06:24:07;;;;;;;6.30;4.20;;;;;;;21.12;100.00;96216.50;4998258;28;24447;-79
2023/08/23 06:26:33;;;;;;;7.38;4.13;;;;;;;21.00;100.00;96210.63;4992162;28;24438;-78
2023/08/23 06:29:00;;;;;;;5.93;4.25;;;;;;;20.95;100.00;96208.44;4986801;28;24465;-79
2023/08/23 06:31:26;;;;;;;6.65;4.13;;;;;;;20.89;100.00;96209.03;4987331;28;24452;-80
2023/08/23 06:33:54;;;;;;;6.87;4.23;;;;;;;21.06;100.00;96209.19;4994043;28;24473;-78
2023/08/23 06:36:20;;;;;;;7.80;4.30;;;;;;;21.05;100.00;96213.63;4986227;28;24433;-79
2023/08/23 06:38:47;;;;;;;4.63;4.13;;;;;;;21.40;100.00;96236.53;4997688;28;24986;-77
2023/08/23 06:41:14;;;;;;;6.63;3.83;;;;;;;21.63;100.00;96228.16;4995498;28;24425;-78
2023/08/23 06:43:41;;;;;;;4.47;3.65;;;;;;;21.80;100.00;96227.25;4984849;28;24447;-79
2023/08/23 06:46:07;;;;;;;8.93;4.43;;;;;;;21.97;100.00;96221.13;4992159;28;24456;-78
2023/08/23 06:48:34;;;;;;;6.75;4.20;;;;;;;22.06;100.00;96222.00;4977129;28;24469;-79
2023/08/23 06:51:03;;;;;;;8.07;4.68;;;;;;;22.32;100.00;96215.88;4984023;28;24972;-78
2023/08/23 06:53:31;;;;;;;15.82;4.80;;;;;;;22.60;100.00;96224.41;4994204;28;24420;-76
2023/08/23 06:55:57;;;;;;;6.82;4.35;;;;;;;22.74;100.00;96226.44;4994309;28;24780;-75
2023/08/23 06:58:24;;;;;;;7.45;4.50;;;;;;;22.99;100.00;96218.59;4993986;28;24427;-75
2023/08/23 07:00:50;;;;;;;9.35;4.88;;;;;;;23.05;100.00;96224.06;4986896;28;25053;-75
2023/08/23 07:03:17;;;;;;;11.30;4.57;;;;;;;22.77;100.00;96223.50;4984959;28;24448;-74
2023/08/23 07:05:43;;;;;;;6.13;4.00;;;;;;;22.95;100.00;96226.03;4980077;28;24805;-74
2023/08/23 07:08:11;;;;;;;9.38;4.65;;;;;;;22.93;100.00;96220.91;4990335;28;24433;-74
2023/08/23 07:10:38;;;;;;;12.80;4.40;;;;;;;23.22;100.00;96222.28;4978966;28;24821;-75
2023/08/23 07:13:05;;;;;;;7.95;4.35;;;;;;;23.61;100.00;96227.72;4985028;28;24438;-75
2023/08/23 07:15:31;;;;;;;10.17;4.23;;;;;;;23.50;100.00;96229.91;4977826;28;24433;-76
2023/08/23 07:17:58;;;;;;;12.05;4.90;;;;;;;23.57;100.00;96231.72;4989709;28;24822;-75
2023/08/23 07:20:24;;;;;;;10.13;4.32;;;;;;;23.45;100.00;96227.75;4992460;28;24440;-76
2023/08/23 07:22:51;;;;;;;6.82;3.90;;;;;;;23.73;100.00;96228.28;4986670;28;24444;-76
2023/08/23 07:25:19;;;;;;;6.80;3.88;;;;;;;24.18;100.00;96229.53;4981058;28;24845;-75
2023/08/23 07:27:45;;;;;;;7.50;4.18;;;;;;;24.12;100.00;96224.91;4974335;28;24971;-76
2023/08/23 07:30:13;;;;;;;6.53;3.83;;;;;;;24.60;100.00;96225.75;4974122;28;24468;-77
2023/08/23 07:32:39;;;;;;;7.00;3.50;;;;;;;25.09;100.00;96221.00;4990705;28;24815;-77
2023/08/23 07:35:07;;;;;;;4.93;3.55;;;;;;;25.19;100.00;96227.94;4982685;28;24433;-77
2023/08/23 07:37:34;;;;;;;7.30;3.63;;;;;;;25.12;100.00;96229.66;4993998;28;24439;-77
2023/08/23 07:40:00;;;;;;;6.80;3.85;;;;;;;25.23;100.00;96230.06;4981502;28;25018;-76
2023/08/23 07:42:28;;;;;;;8.35;3.80;;;;;;;25.04;100.00;96227.84;4975637;28;24424;-78
2023/08/23 07:44:55;;;;;;;6.05;3.70;;;;;;;24.85;100.00;96229.13;4974775;28;24441;-77
2023/08/23 07:47:21;;;;;;;6.70;4.07;;;;;;;24.85;100.00;96235.25;4981802;28;24911;-78
2023/08/23 07:49:49;;;;;;;6.15;3.58;;;;;;;24.83;100.00;96229.28;5037201;23;24467;-78
2023/08/23 07:52:15;;;;;;;4.68;3.47;;;;;;;24.76;100.00;96235.44;5001541;28;24457;-77
2023/08/23 07:54:42;;;;;;;6.88;3.70;;;;;;;24.96;100.00;96230.56;5003016;28;24464;-78
2023/08/23 08:08:17;;;;;;;4.75;3.40;;;;;;;26.10;100.00;96234.16;5496886;23;24858;-78
2023/08/23 08:10:44;;;;;;;7.78;3.67;;;;;;;26.38;100.00;96239.69;4987788;28;24461;-77
2023/08/23 08:13:10;;;;;;;6.30;3.47;;;;;;;26.73;100.00;96240.78;4993884;28;24416;-77
2023/08/23 08:15:37;;;;;;;9.43;3.90;;;;;;;27.08;100.00;96241.81;4977097;28;24433;-77
2023/08/23 08:18:03;;;;;;;8.33;3.90;;;;;;;27.26;100.00;96244.91;4994472;28;24424;-79
2023/08/23 08:20:30;;;;;;;6.13;4.00;;;;;;;27.17;100.00;96240.69;4985150;28;24457;-76
2023/08/23 08:22:56;;;;;;;6.93;3.80;;;;;;;27.46;100.00;96241.59;4981003;28;24459;-77
2023/08/23 08:25:27;;;;;;;9.55;4.30;;;;;;;27.66;100.00;96247.94;4993947;28;24420;-82
2023/08/23 08:27:54;;;;;;;5.38;3.33;;;;;;;27.65;100.00;96242.78;4977268;28;24440;-77
2023/08/23 08:30:20;;;;;;;5.72;3.28;;;;;;;27.02;100.00;96239.88;4974482;28;24506;-78
2023/08/23 08:32:47;;;;;;;4.82;3.33;;;;;;;27.35;100.00;96248.25;4975512;28;24525;-75
2023/08/23 08:35:13;;;;;;;6.03;3.37;;;;;;;27.68;100.00;96237.09;4974788;28;24410;-78
2023/08/23 08:37:40;;;;;;;4.93;3.75;;;;;;;27.78;100.00;96242.13;4974631;28;24425;-78
2023/08/23 08:40:07;;;;;;;6.97;3.50;;;;;;;28.12;100.00;96244.03;4991057;28;24452;-78
2023/08/23 08:42:35;;;;;;;9.82;3.72;;;;;;;28.13;100.00;96238.50;4994333;28;24427;-78
2023/08/23 08:45:02;;;;;;;5.57;3.17;;;;;;;28.10;100.00;96238.88;4994044;28;24424;-78
2023/08/23 08:47:28;;;;;;;7.00;3.30;;;;;;;27.97;100.00;96238.81;4993130;28;24970;-74
2023/08/23 08:49:55;;;;;;;5.60;3.25;;;;;;;28.25;100.00;96237.94;4991262;28;24464;-73
2023/08/23 08:52:25;;;;;;;6.33;3.50;;;;;;;28.46;100.00;96244.06;4991249;28;24424;-73
2023/08/23 08:54:54;;;;;;;5.53;3.50;;;;;;;28.10;100.00;96246.03;4991394;28;24413;-74
2023/08/23 08:57:22;;;;;;;7.45;3.67;;;;;;;28.14;100.00;96250.78;4991521;28;24428;-73
2023/08/23 08:59:51;;;;;;;5.60;3.67;;;;;;;28.31;100.00;96243.31;4991145;28;24456;-74
2023/08/23 09:02:19;;;;;;;6.10;3.25;;;;;;;28.04;100.00;96250.31;4990885;28;24488;-74
2023/08/23 09:04:46;;;;;;;6.28;3.20;;;;;;;27.58;100.00;96252.56;4990731;28;24428;-73
2023/08/23 09:07:13;;;;;;;8.55;3.50;;;;;;;27.02;100.00;96254.00;4991218;28;24452;-73
2023/08/23 09:09:41;;;;;;;13.57;3.90;;;;;;;26.91;100.00;96249.16;4991332;28;24453;-73
2023/08/23 09:12:08;;;;;;;10.30;3.80;;;;;;;26.68;100.00;96245.81;4991697;28;24766;-73
2023/08/23 09:14:34;;;;;;;5.30;3.13;;;;;;;26.71;100.00;96251.59;4990861;28;24436;-74
2023/08/23 09:17:02;;;;;;;5.30;3.40;;;;;;;27.20;100.00;96250.97;4991020;28;24424;-74
2023/08/23 09:19:29;;;;;;;5.88;3.78;;;;;;;28.13;100.00;96251.81;4990806;28;24832;-73
2023/08/23 09:21:55;;;;;;;10.52;3.70;;;;;;;28.33;100.00;96238.63;4991220;28;24413;-74
2023/08/23 09:24:22;;;;;;;7.35;3.40;;;;;;;28.28;100.00;96240.22;4990849;28;24428;-73
2023/08/23 09:26:48;;;;;;;7.70;3.50;;;;;;;28.37;100.00;96239.91;4992871;28;24456;-73
2023/08/23 09:29:15;;;;;;;5.93;3.35;;;;;;;28.55;100.00;96236.72;4995008;28;24413;-74
2023/08/23 09:31:42;;;;;;;8.35;3.17;;;;;;;28.78;99.18;96243.63;4994624;28;24513;-74
2023/08/23 09:34:13;;;;;;;9.82;3.50;;;;;;;28.93;97.79;96236.28;4994920;28;24420;-73
2023/08/23 09:36:41;;;;;;;9.23;3.38;;;;;;;28.77;97.28;96228.63;4995214;28;24416;-74
2023/08/23 09:39:09;;;;;;;5.53;3.08;;;;;;;29.24;100.00;96227.78;4995055;28;24432;-74
2023/08/23 09:41:38;;;;;;;6.35;3.15;;;;;;;29.35;94.91;96219.19;4995131;28;24429;-73
2023/08/23 09:44:05;;;;;;;6.05;3.03;;;;;;;29.48;93.08;96220.22;4994551;28;24776;-74
2023/08/23 09:46:34;;;;;;;5.43;3.22;;;;;;;29.72;94.93;96226.84;4994824;28;24409;-74
2023/08/23 09:49:04;;;;;;;6.68;3.03;;;;;;;29.68;90.61;96234.44;4994781;28;24513;-74
2023/08/23 09:51:36;;;;;;;13.20;2.67;;;;;;;29.56;94.25;96236.88;4994769;28;24452;-74
2023/08/23 09:54:11;;;;;;;7.00;3.45;;;;;;;29.31;89.27;96236.63;4994499;28;24460;-74
2023/08/23 09:56:38;;;;;;;4.90;3.08;;;;;;;28.45;81.80;96231.75;4994875;28;24419;-74
2023/08/23 09:59:05;;;;;;;6.88;3.17;;;;;;;28.88;81.53;96233.38;4994720;28;24441;-74
2023/08/23 10:01:31;;;;;;;5.50;3.35;;;;;;;28.55;81.13;96226.06;4994692;28;25015;-74
2023/08/23 10:03:59;;;;;;;6.88;2.95;;;;;;;28.53;81.21;96219.31;4994632;28;24491;-75
2023/08/23 10:06:26;;;;;;;6.50;3.30;;;;;;;28.05;82.62;96217.34;4994662;28;24417;-74
2023/08/23 10:08:57;;;;;;;6.35;3.53;;;;;;;28.58;85.47;96219.53;4994488;28;24952;-73
2023/08/23 10:11:25;;;;;;;5.73;3.07;;;;;;;29.03;81.59;96212.75;4994673;28;24456;-74
2023/08/23 10:13:53;;;;;;;5.78;2.90;;;;;;;29.10;71.50;96210.91;4990690;28;24456;-74
2023/08/23 10:16:22;;;;;;;5.97;3.40;;;;;;;28.46;72.33;96219.25;4982083;28;24449;-74
2023/08/23 10:18:49;;;;;;;5.13;3.03;;;;;;;28.46;72.05;96224.59;4979008;28;24481;-74
2023/08/23 10:21:17;;;;;;;4.90;2.93;;;;;;;28.18;72.76;96222.78;4974753;28;24438;-74
2023/08/23 10:23:44;;;;;;;10.68;3.03;;;;;;;28.11;79.93;96232.56;4980673;28;24447;-75
2023/08/23 10:26:19;;;;;;;7.07;3.25;;;;;;;28.86;81.05;96233.59;4983836;28;24444;-76
2023/08/23 10:28:50;;;;;;;4.43;2.90;;;;;;;28.87;71.77;96231.75;4974570;28;24858;-76
2023/08/23 10:31:23;;;;;;;7.07;3.13;;;;;;;29.01;70.09;96228.13;4979743;28;25068;-77
2023/08/23 10:33:54;;;;;;;4.20;3.00;;;;;;;28.99;70.44;96232.84;4984543;28;24441;-75
2023/08/23 10:36:29;;;;;;;6.43;2.80;;;;;;;29.42;73.51;96233.34;4983565;28;24437;-77
2023/08/23 10:38:56;;;;;;;8.02;3.25;;;;;;;29.86;74.37;96229.31;4990278;28;25105;-77
2023/08/23 10:41:26;;;;;;;5.32;3.47;;;;;;;29.72;73.51;96221.50;4976458;28;24434;-77
2023/08/23 10:43:53;;;;;;;6.22;3.60;;;;;;;29.76;71.34;96231.56;4988762;28;24437;-77
2023/08/23 10:46:22;;;;;;;5.80;3.20;;;;;;;29.92;76.72;96230.31;4992916;28;24515;-76
2023/08/23 10:48:49;;;;;;;7.30;3.20;;;;;;;29.90;72.45;96232.38;4991572;28;24988;-76
2023/08/23 10:51:16;;;;;;;7.05;3.33;;;;;;;29.72;70.58;96227.66;4993248;28;24464;-76
2023/08/23 10:53:44;;;;;;;4.75;3.08;;;;;;;29.62;70.69;96222.72;4992922;28;24433;-77
2023/08/23 10:56:11;;;;;;;5.85;3.22;;;;;;;29.79;75.05;96220.47;4989567;28;24529;-76
2023/08/23 10:58:39;;;;;;;8.02;3.30;;;;;;;29.94;73.08;96224.78;4990102;28;24490;-77
2023/08/23 11:01:06;;;;;;;6.03;3.10;;;;;;;29.77;69.99;96222.53;4979962;28;24527;-77
2023/08/23 11:03:34;;;;;;;6.40;3.37;;;;;;;29.74;71.31;96219.44;4992646;28;24444;-77
2023/08/23 11:06:01;;;;;;;7.75;3.35;;;;;;;29.83;79.69;96213.69;4992714;28;24812;-76
2023/08/23 11:08:27;;;;;;;6.38;3.33;;;;;;;29.90;74.38;96224.38;4992426;28;24812;-77
2023/08/23 11:10:54;;;;;;;6.72;3.33;;;;;;;29.45;71.73;96215.31;4992882;28;24460;-76
2023/08/23 11:13:20;;;;;;;5.15;3.60;;;;;;;29.21;71.15;96222.03;4984933;28;25000;-76
2023/08/23 11:15:48;;;;;;;6.20;3.08;;;;;;;29.03;76.32;96223.41;4974211;28;24448;-75
2023/08/23 11:18:16;;;;;;;7.55;3.65;;;;;;;29.09;73.77;96214.63;4981913;28;24433;-75
2023/08/23 11:20:43;;;;;;;6.73;3.30;;;;;;;29.16;72.65;96218.13;4974516;28;24438;-77
2023/08/23 11:23:09;;;;;;;9.33;3.73;;;;;;;29.19;77.57;96211.56;4973394;28;24430;-76
2023/08/23 11:25:36;;;;;;;9.88;3.58;;;;;;;29.21;76.26;96209.50;4982725;28;24817;-77
2023/08/23 11:28:05;;;;;;;8.27;3.90;;;;;;;29.02;74.19;96216.44;4992877;28;24496;-77
2023/08/23 11:30:31;;;;;;;5.43;2.80;;;;;;;28.75;73.76;96214.69;4978139;28;24587;-76
2023/08/23 11:32:59;;;;;;;5.63;3.35;;;;;;;28.96;74.28;96209.22;4979562;28;24567;-77
2023/08/23 11:35:27;;;;;;;6.80;3.13;;;;;;;29.14;74.12;96209.47;4980104;28;24433;-77
2023/08/23 11:37:54;;;;;;;7.13;3.23;;;;;;;29.10;75.90;96218.91;4985364;28;24448;-77